sensor_id;sensor_type;location;lat;lon;timestamp;pressure;altitude;pressure_sealevel;temperature;humidity
63181;BME280;49273;37.772;-122.432;2022-11-15T00:01:08;101316.86;;;16.39;40.52
63181;BME280;49273;37.772;-122.432;2022-11-15T00:03:36;101320.16;;;16.38;40.63
63181;BME280;49273;37.772;-122.432;2022-11-15T00:06:04;101321.11;;;16.47;40.33
63181;BME280;49273;37.772;-122.432;2022-11-15T00:08:33;101319.52;;;16.48;39.90
63181;BME280;49273;37.772;-122.432;2022-11-15T00:11:02;101321.98;;;16.44;39.91
63181;BME280;49273;37.772;-122.432;2022-11-15T00:13:30;101323.37;;;16.38;39.99
63181;BME280;49273;37.772;-122.432;2022-11-15T00:15:59;101319.33;;;16.22;39.46
63181;BME280;49273;37.772;-122.432;2022-11-15T00:18:29;101317.79;;;16.05;40.16
63181;BME280;49273;37.772;-122.432;2022-11-15T00:21:04;101317.94;;;16.08;39.76
63181;BME280;49273;37.772;-122.432;2022-11-15T00:23:33;101314.56;;;15.83;39.86
63181;BME280;49273;37.772;-122.432;2022-11-15T00:26:01;101314.91;;;15.73;40.24
63181;BME280;49273;37.772;-122.432;2022-11-15T00:28:30;101314.96;;;15.75;39.79
63181;BME280;49273;37.772;-122.432;2022-11-15T00:31:01;101318.93;;;15.86;39.83
63181;BME280;49273;37.772;-122.432;2022-11-15T00:33:30;101319.63;;;15.56;40.57
63181;BME280;49273;37.772;-122.432;2022-11-15T00:36:03;101320.76;;;15.72;41.14
63181;BME280;49273;37.772;-122.432;2022-11-15T00:38:32;101319.40;;;15.86;41.52
63181;BME280;49273;37.772;-122.432;2022-11-15T00:41:01;101325.08;;;15.74;43.66
63181;BME280;49273;37.772;-122.432;2022-11-15T00:43:29;101328.59;;;15.75;43.72
63181;BME280;49273;37.772;-122.432;2022-11-15T00:45:57;101325.92;;;15.64;44.06
63181;BME280;49273;37.772;-122.432;2022-11-15T00:48:25;101323.68;;;15.74;44.90
63181;BME280;49273;37.772;-122.432;2022-11-15T00:50:53;101321.55;;;15.52;48.80
63181;BME280;49273;37.772;-122.432;2022-11-15T00:53:21;101316.31;;;15.53;47.82
63181;BME280;49273;37.772;-122.432;2022-11-15T00:55:49;101316.48;;;15.58;49.03
63181;BME280;49273;37.772;-122.432;2022-11-15T00:58:17;101314.39;;;15.59;45.09
63181;BME280;49273;37.772;-122.432;2022-11-15T01:00:45;101312.80;;;15.52;45.59
63181;BME280;49273;37.772;-122.432;2022-11-15T01:03:12;101313.50;;;15.54;44.78
63181;BME280;49273;37.772;-122.432;2022-11-15T01:05:40;101315.19;;;15.53;44.50
63181;BME280;49273;37.772;-122.432;2022-11-15T01:08:12;101314.93;;;15.51;44.68
63181;BME280;49273;37.772;-122.432;2022-11-15T01:10:41;101317.83;;;15.36;49.01
63181;BME280;49273;37.772;-122.432;2022-11-15T01:13:09;101322.45;;;15.17;52.63
63181;BME280;49273;37.772;-122.432;2022-11-15T01:15:40;101321.01;;;15.20;54.34
63181;BME280;49273;37.772;-122.432;2022-11-15T01:18:08;101322.89;;;15.13;55.27
63181;BME280;49273;37.772;-122.432;2022-11-15T01:20:40;101325.59;;;15.13;55.70
63181;BME280;49273;37.772;-122.432;2022-11-15T01:23:08;101328.04;;;15.08;56.29
63181;BME280;49273;37.772;-122.432;2022-11-15T01:25:35;101329.28;;;15.05;56.73
63181;BME280;49273;37.772;-122.432;2022-11-15T01:28:03;101328.92;;;15.10;55.63
63181;BME280;49273;37.772;-122.432;2022-11-15T01:30:32;101327.70;;;15.10;55.59
63181;BME280;49273;37.772;-122.432;2022-11-15T01:33:01;101330.50;;;15.08;55.57
63181;BME280;49273;37.772;-122.432;2022-11-15T01:35:28;101336.79;;;15.00;55.77
63181;BME280;49273;37.772;-122.432;2022-11-15T01:37:56;101340.05;;;15.11;55.35
63181;BME280;49273;37.772;-122.432;2022-11-15T01:40:24;101345.19;;;15.04;54.95
63181;BME280;49273;37.772;-122.432;2022-11-15T01:42:51;101348.22;;;14.97;55.43
63181;BME280;49273;37.772;-122.432;2022-11-15T01:45:19;101347.35;;;14.88;56.48
63181;BME280;49273;37.772;-122.432;2022-11-15T01:47:50;101345.47;;;14.72;57.61
63181;BME280;49273;37.772;-122.432;2022-11-15T01:50:24;101344.86;;;14.70;58.11
63181;BME280;49273;37.772;-122.432;2022-11-15T01:52:54;101342.40;;;14.67;58.38
63181;BME280;49273;37.772;-122.432;2022-11-15T01:55:24;101344.96;;;14.74;58.01
63181;BME280;49273;37.772;-122.432;2022-11-15T01:57:54;101340.79;;;14.71;58.15
63181;BME280;49273;37.772;-122.432;2022-11-15T02:00:27;101340.96;;;14.69;58.29
63181;BME280;49273;37.772;-122.432;2022-11-15T02:02:55;101340.43;;;14.68;58.42
63181;BME280;49273;37.772;-122.432;2022-11-15T02:05:23;101342.80;;;14.59;58.50
63181;BME280;49273;37.772;-122.432;2022-11-15T02:07:51;101347.83;;;14.61;58.76
63181;BME280;49273;37.772;-122.432;2022-11-15T02:10:22;101352.00;;;14.62;58.26
63181;BME280;49273;37.772;-122.432;2022-11-15T02:12:51;101356.91;;;14.53;57.76
63181;BME280;49273;37.772;-122.432;2022-11-15T02:15:20;101362.97;;;14.50;57.79
63181;BME280;49273;37.772;-122.432;2022-11-15T02:18:05;101369.32;;;14.44;57.75
63181;BME280;49273;37.772;-122.432;2022-11-15T02:20:42;101372.45;;;14.47;57.62
63181;BME280;49273;37.772;-122.432;2022-11-15T02:24:37;101374.95;;;14.46;57.58
63181;BME280;49273;37.772;-122.432;2022-11-15T02:27:29;101380.26;;;14.48;57.55
63181;BME280;49273;37.772;-122.432;2022-11-15T02:30:16;101386.03;;;14.48;57.01
63181;BME280;49273;37.772;-122.432;2022-11-15T02:32:47;101390.21;;;14.46;56.23
63181;BME280;49273;37.772;-122.432;2022-11-15T02:35:25;101391.97;;;14.44;55.12
63181;BME280;49273;37.772;-122.432;2022-11-15T02:37:59;101394.31;;;14.46;55.75
63181;BME280;49273;37.772;-122.432;2022-11-15T02:40:40;101393.50;;;14.53;55.74
63181;BME280;49273;37.772;-122.432;2022-11-15T02:43:17;101393.36;;;14.50;55.31
63181;BME280;49273;37.772;-122.432;2022-11-15T02:45:51;101399.57;;;14.41;54.25
63181;BME280;49273;37.772;-122.432;2022-11-15T02:48:22;101396.48;;;14.37;53.17
63181;BME280;49273;37.772;-122.432;2022-11-15T02:50:52;101398.28;;;14.34;53.68
63181;BME280;49273;37.772;-122.432;2022-11-15T02:53:24;101400.27;;;14.34;52.30
63181;BME280;49273;37.772;-122.432;2022-11-15T02:55:54;101403.77;;;14.41;52.17
63181;BME280;49273;37.772;-122.432;2022-11-15T02:59:09;101403.68;;;14.39;52.09
63181;BME280;49273;37.772;-122.432;2022-11-15T03:01:51;101403.55;;;14.36;52.71
63181;BME280;49273;37.772;-122.432;2022-11-15T03:04:29;101401.00;;;14.32;52.72
63181;BME280;49273;37.772;-122.432;2022-11-15T03:07:07;101398.86;;;14.37;53.24
63181;BME280;49273;37.772;-122.432;2022-11-15T03:09:42;101399.83;;;14.34;53.15
63181;BME280;49273;37.772;-122.432;2022-11-15T03:12:20;101395.95;;;14.27;53.50
63181;BME280;49273;37.772;-122.432;2022-11-15T03:14:56;101394.32;;;14.28;53.93
63181;BME280;49273;37.772;-122.432;2022-11-15T03:17:29;101393.33;;;14.21;54.60
63181;BME280;49273;37.772;-122.432;2022-11-15T03:20:00;101395.93;;;14.19;54.71
63181;BME280;49273;37.772;-122.432;2022-11-15T03:22:33;101396.33;;;14.25;53.40
63181;BME280;49273;37.772;-122.432;2022-11-15T03:25:05;101397.20;;;14.27;53.46
63181;BME280;49273;37.772;-122.432;2022-11-15T03:27:37;101397.95;;;14.20;54.93
63181;BME280;49273;37.772;-122.432;2022-11-15T03:30:09;101398.64;;;14.25;53.86
63181;BME280;49273;37.772;-122.432;2022-11-15T03:32:40;101404.44;;;14.06;53.75
63181;BME280;49273;37.772;-122.432;2022-11-15T03:35:13;101406.23;;;14.14;54.62
63181;BME280;49273;37.772;-122.432;2022-11-15T03:37:48;101404.81;;;14.14;53.83
63181;BME280;49273;37.772;-122.432;2022-11-15T03:40:18;101410.41;;;14.13;54.10
63181;BME280;49273;37.772;-122.432;2022-11-15T03:42:57;101415.44;;;14.08;53.98
63181;BME280;49273;37.772;-122.432;2022-11-15T03:45:31;101418.75;;;14.06;53.97
63181;BME280;49273;37.772;-122.432;2022-11-15T03:48:04;101421.07;;;13.98;54.94
63181;BME280;49273;37.772;-122.432;2022-11-15T03:50:32;101424.06;;;14.08;53.69
63181;BME280;49273;37.772;-122.432;2022-11-15T03:53:01;101423.07;;;14.08;53.75
63181;BME280;49273;37.772;-122.432;2022-11-15T03:55:32;101424.49;;;13.96;52.68
63181;BME280;49273;37.772;-122.432;2022-11-15T03:58:01;101426.49;;;13.93;52.54
63181;BME280;49273;37.772;-122.432;2022-11-15T04:00:29;101428.35;;;13.98;53.27
63181;BME280;49273;37.772;-122.432;2022-11-15T04:02:58;101428.25;;;13.96;54.21
63181;BME280;49273;37.772;-122.432;2022-11-15T04:05:26;101428.09;;;13.84;54.90
63181;BME280;49273;37.772;-122.432;2022-11-15T04:07:54;101435.98;;;13.73;55.36
63181;BME280;49273;37.772;-122.432;2022-11-15T04:10:22;101436.89;;;13.77;55.91
63181;BME280;49273;37.772;-122.432;2022-11-15T04:12:50;101436.55;;;13.66;55.29
63181;BME280;49273;37.772;-122.432;2022-11-15T04:15:22;101441.17;;;13.73;55.10
63181;BME280;49273;37.772;-122.432;2022-11-15T04:17:52;101446.41;;;13.78;54.48
63181;BME280;49273;37.772;-122.432;2022-11-15T04:20:23;101449.57;;;13.87;54.53
63181;BME280;49273;37.772;-122.432;2022-11-15T04:22:53;101449.59;;;13.84;54.97
63181;BME280;49273;37.772;-122.432;2022-11-15T04:25:21;101449.77;;;13.69;55.00
63181;BME280;49273;37.772;-122.432;2022-11-15T04:27:49;101453.96;;;13.56;56.25
63181;BME280;49273;37.772;-122.432;2022-11-15T04:30:18;101455.80;;;13.48;56.37
63181;BME280;49273;37.772;-122.432;2022-11-15T04:32:46;101457.32;;;13.37;56.70
63181;BME280;49273;37.772;-122.432;2022-11-15T04:35:14;101456.80;;;13.31;57.25
63181;BME280;49273;37.772;-122.432;2022-11-15T04:37:42;101458.23;;;13.36;57.32
63181;BME280;49273;37.772;-122.432;2022-11-15T04:40:10;101457.71;;;13.27;57.77
63181;BME280;49273;37.772;-122.432;2022-11-15T04:42:41;101462.41;;;13.26;57.32
63181;BME280;49273;37.772;-122.432;2022-11-15T04:45:09;101461.94;;;13.23;57.87
63181;BME280;49273;37.772;-122.432;2022-11-15T04:47:37;101462.14;;;13.06;58.64
63181;BME280;49273;37.772;-122.432;2022-11-15T04:50:06;101462.63;;;13.09;58.71
63181;BME280;49273;37.772;-122.432;2022-11-15T04:52:35;101463.49;;;13.17;58.37
63181;BME280;49273;37.772;-122.432;2022-11-15T04:55:03;101470.23;;;13.17;57.94
63181;BME280;49273;37.772;-122.432;2022-11-15T04:57:31;101473.92;;;13.20;58.45
63181;BME280;49273;37.772;-122.432;2022-11-15T04:59:59;101473.23;;;13.23;58.20
63181;BME280;49273;37.772;-122.432;2022-11-15T05:02:27;101474.94;;;13.21;57.45
63181;BME280;49273;37.772;-122.432;2022-11-15T05:04:56;101474.98;;;13.17;57.86
63181;BME280;49273;37.772;-122.432;2022-11-15T05:07:24;101478.10;;;13.23;58.16
63181;BME280;49273;37.772;-122.432;2022-11-15T05:09:52;101480.71;;;13.14;58.28
63181;BME280;49273;37.772;-122.432;2022-11-15T05:12:20;101481.33;;;13.26;58.01
63181;BME280;49273;37.772;-122.432;2022-11-15T05:14:48;101481.58;;;13.20;58.13
63181;BME280;49273;37.772;-122.432;2022-11-15T05:17:16;101486.48;;;13.21;58.75
63181;BME280;49273;37.772;-122.432;2022-11-15T05:19:44;101485.21;;;13.08;59.22
63181;BME280;49273;37.772;-122.432;2022-11-15T05:22:13;101488.05;;;13.06;59.50
63181;BME280;49273;37.772;-122.432;2022-11-15T05:24:40;101491.06;;;13.10;59.42
63181;BME280;49273;37.772;-122.432;2022-11-15T05:27:08;101491.80;;;13.09;59.39
63181;BME280;49273;37.772;-122.432;2022-11-15T05:29:36;101492.00;;;12.91;59.97
63181;BME280;49273;37.772;-122.432;2022-11-15T05:32:06;101493.17;;;12.96;60.00
63181;BME280;49273;37.772;-122.432;2022-11-15T05:34:36;101490.37;;;12.95;59.56
63181;BME280;49273;37.772;-122.432;2022-11-15T05:37:04;101490.84;;;12.89;59.71
63181;BME280;49273;37.772;-122.432;2022-11-15T05:39:32;101493.92;;;12.94;59.15
63181;BME280;49273;37.772;-122.432;2022-11-15T05:42:02;101492.21;;;12.86;59.15
63181;BME280;49273;37.772;-122.432;2022-11-15T05:44:35;101492.49;;;12.91;59.67
63181;BME280;49273;37.772;-122.432;2022-11-15T05:47:04;101494.98;;;12.99;59.81
63181;BME280;49273;37.772;-122.432;2022-11-15T05:49:34;101497.04;;;12.98;59.57
63181;BME280;49273;37.772;-122.432;2022-11-15T05:52:05;101496.23;;;12.92;59.86
63181;BME280;49273;37.772;-122.432;2022-11-15T05:54:36;101498.24;;;13.01;59.91
63181;BME280;49273;37.772;-122.432;2022-11-15T05:57:05;101497.53;;;12.96;60.31
63181;BME280;49273;37.772;-122.432;2022-11-15T05:59:34;101503.11;;;12.90;60.82
63181;BME280;49273;37.772;-122.432;2022-11-15T06:02:02;101506.28;;;12.88;60.79
63181;BME280;49273;37.772;-122.432;2022-11-15T06:04:30;101509.43;;;12.85;60.77
63181;BME280;49273;37.772;-122.432;2022-11-15T06:06:59;101506.59;;;12.95;60.90
63181;BME280;49273;37.772;-122.432;2022-11-15T06:09:26;101505.92;;;12.90;61.17
63181;BME280;49273;37.772;-122.432;2022-11-15T06:11:54;101503.59;;;12.85;61.30
63181;BME280;49273;37.772;-122.432;2022-11-15T06:14:22;101503.96;;;12.86;61.32
63181;BME280;49273;37.772;-122.432;2022-11-15T06:16:51;101507.67;;;12.79;61.36
63181;BME280;49273;37.772;-122.432;2022-11-15T06:19:19;101511.58;;;12.70;61.41
63181;BME280;49273;37.772;-122.432;2022-11-15T06:21:47;101513.01;;;12.77;61.17
63181;BME280;49273;37.772;-122.432;2022-11-15T06:24:15;101513.84;;;12.74;61.02
63181;BME280;49273;37.772;-122.432;2022-11-15T06:26:44;101510.64;;;12.82;60.39
63181;BME280;49273;37.772;-122.432;2022-11-15T06:29:12;101513.14;;;12.81;60.62
63181;BME280;49273;37.772;-122.432;2022-11-15T06:31:40;101514.53;;;12.81;60.88
63181;BME280;49273;37.772;-122.432;2022-11-15T06:34:08;101513.93;;;12.78;60.93
63181;BME280;49273;37.772;-122.432;2022-11-15T06:36:36;101512.12;;;12.74;61.12
63181;BME280;49273;37.772;-122.432;2022-11-15T06:39:04;101511.63;;;12.74;61.28
63181;BME280;49273;37.772;-122.432;2022-11-15T06:41:34;101510.57;;;12.60;61.68
63181;BME280;49273;37.772;-122.432;2022-11-15T06:44:03;101508.11;;;12.53;62.06
63181;BME280;49273;37.772;-122.432;2022-11-15T06:46:31;101507.30;;;12.67;61.85
63181;BME280;49273;37.772;-122.432;2022-11-15T06:48:59;101505.59;;;12.55;62.29
63181;BME280;49273;37.772;-122.432;2022-11-15T06:51:26;101505.44;;;12.63;62.42
63181;BME280;49273;37.772;-122.432;2022-11-15T06:53:55;101507.20;;;12.54;62.83
63181;BME280;49273;37.772;-122.432;2022-11-15T06:56:22;101508.88;;;12.56;62.69
63181;BME280;49273;37.772;-122.432;2022-11-15T06:58:50;101507.63;;;12.58;62.70
63181;BME280;49273;37.772;-122.432;2022-11-15T07:01:18;101503.90;;;12.48;62.41
63181;BME280;49273;37.772;-122.432;2022-11-15T07:03:47;101504.32;;;12.49;62.37
63181;BME280;49273;37.772;-122.432;2022-11-15T07:06:15;101505.11;;;12.54;62.23
63181;BME280;49273;37.772;-122.432;2022-11-15T07:08:43;101504.32;;;12.43;61.73
63181;BME280;49273;37.772;-122.432;2022-11-15T07:11:12;101506.88;;;12.48;61.73
63181;BME280;49273;37.772;-122.432;2022-11-15T07:13:40;101506.46;;;12.47;61.41
63181;BME280;49273;37.772;-122.432;2022-11-15T07:16:09;101505.60;;;12.39;61.20
63181;BME280;49273;37.772;-122.432;2022-11-15T07:18:39;101505.86;;;12.49;61.14
63181;BME280;49273;37.772;-122.432;2022-11-15T07:21:08;101507.37;;;12.48;61.56
63181;BME280;49273;37.772;-122.432;2022-11-15T07:23:37;101510.47;;;12.44;61.41
63181;BME280;49273;37.772;-122.432;2022-11-15T07:26:05;101511.29;;;12.32;61.34
63181;BME280;49273;37.772;-122.432;2022-11-15T07:28:34;101512.12;;;12.28;61.22
63181;BME280;49273;37.772;-122.432;2022-11-15T07:31:04;101513.44;;;12.38;61.14
63181;BME280;49273;37.772;-122.432;2022-11-15T07:33:33;101514.38;;;12.38;61.06
63181;BME280;49273;37.772;-122.432;2022-11-15T07:36:02;101513.23;;;12.38;61.12
63181;BME280;49273;37.772;-122.432;2022-11-15T07:38:30;101511.11;;;12.33;61.43
63181;BME280;49273;37.772;-122.432;2022-11-15T07:41:01;101511.04;;;12.24;62.13
63181;BME280;49273;37.772;-122.432;2022-11-15T07:43:29;101507.00;;;12.31;61.44
63181;BME280;49273;37.772;-122.432;2022-11-15T07:45:58;101508.76;;;12.29;61.76
63181;BME280;49273;37.772;-122.432;2022-11-15T07:48:26;101507.26;;;12.23;61.72
63181;BME280;49273;37.772;-122.432;2022-11-15T07:50:54;101502.78;;;12.24;61.46
63181;BME280;49273;37.772;-122.432;2022-11-15T07:53:21;101499.01;;;12.29;61.42
63181;BME280;49273;37.772;-122.432;2022-11-15T07:55:49;101497.74;;;12.32;61.36
63181;BME280;49273;37.772;-122.432;2022-11-15T07:58:18;101499.76;;;12.30;61.13
63181;BME280;49273;37.772;-122.432;2022-11-15T08:00:45;101502.56;;;12.33;61.13
63181;BME280;49273;37.772;-122.432;2022-11-15T08:03:16;101503.67;;;12.27;61.27
63181;BME280;49273;37.772;-122.432;2022-11-15T08:05:50;101499.97;;;12.25;60.58
63181;BME280;49273;37.772;-122.432;2022-11-15T08:08:19;101497.76;;;12.31;60.76
63181;BME280;49273;37.772;-122.432;2022-11-15T08:10:46;101498.72;;;12.36;60.75
63181;BME280;49273;37.772;-122.432;2022-11-15T08:13:14;101498.17;;;12.36;61.05
63181;BME280;49273;37.772;-122.432;2022-11-15T08:15:43;101501.65;;;12.26;61.30
63181;BME280;49273;37.772;-122.432;2022-11-15T08:18:14;101500.23;;;12.25;61.63
63181;BME280;49273;37.772;-122.432;2022-11-15T08:20:43;101502.21;;;12.31;61.62
63181;BME280;49273;37.772;-122.432;2022-11-15T08:23:12;101505.88;;;12.17;60.91
63181;BME280;49273;37.772;-122.432;2022-11-15T08:25:40;101503.49;;;12.28;61.47
63181;BME280;49273;37.772;-122.432;2022-11-15T08:28:09;101500.66;;;12.32;61.74
63181;BME280;49273;37.772;-122.432;2022-11-15T08:30:39;101503.13;;;12.26;61.57
63181;BME280;49273;37.772;-122.432;2022-11-15T08:33:11;101501.74;;;12.34;61.87
63181;BME280;49273;37.772;-122.432;2022-11-15T08:35:40;101499.97;;;12.34;61.30
63181;BME280;49273;37.772;-122.432;2022-11-15T08:38:08;101498.68;;;12.29;61.49
63181;BME280;49273;37.772;-122.432;2022-11-15T08:40:37;101500.36;;;12.43;61.62
63181;BME280;49273;37.772;-122.432;2022-11-15T08:43:05;101506.71;;;12.30;61.56
63181;BME280;49273;37.772;-122.432;2022-11-15T08:45:35;101509.84;;;12.33;61.79
63181;BME280;49273;37.772;-122.432;2022-11-15T08:48:04;101514.07;;;12.18;62.23
63181;BME280;49273;37.772;-122.432;2022-11-15T08:50:32;101516.21;;;12.21;62.59
63181;BME280;49273;37.772;-122.432;2022-11-15T08:53:05;101517.16;;;12.27;62.41
63181;BME280;49273;37.772;-122.432;2022-11-15T08:55:35;101519.47;;;12.30;62.33
63181;BME280;49273;37.772;-122.432;2022-11-15T08:58:04;101519.93;;;12.09;62.66
63181;BME280;49273;37.772;-122.432;2022-11-15T09:00:31;101520.47;;;12.20;62.79
63181;BME280;49273;37.772;-122.432;2022-11-15T09:03:01;101517.41;;;12.05;62.94
63181;BME280;49273;37.772;-122.432;2022-11-15T09:05:31;101515.52;;;12.10;63.11
63181;BME280;49273;37.772;-122.432;2022-11-15T09:07:59;101514.49;;;12.02;63.59
63181;BME280;49273;37.772;-122.432;2022-11-15T09:10:27;101515.49;;;12.09;63.47
63181;BME280;49273;37.772;-122.432;2022-11-15T09:12:57;101514.82;;;11.92;64.31
63181;BME280;49273;37.772;-122.432;2022-11-15T09:15:25;101513.58;;;11.93;63.89
63181;BME280;49273;37.772;-122.432;2022-11-15T09:17:53;101510.87;;;12.02;63.74
63181;BME280;49273;37.772;-122.432;2022-11-15T09:20:21;101512.63;;;11.98;63.76
63181;BME280;49273;37.772;-122.432;2022-11-15T09:22:49;101513.49;;;11.93;63.76
63181;BME280;49273;37.772;-122.432;2022-11-15T09:25:17;101515.70;;;11.89;63.62
63181;BME280;49273;37.772;-122.432;2022-11-15T09:27:45;101520.06;;;11.95;63.11
63181;BME280;49273;37.772;-122.432;2022-11-15T09:30:13;101523.65;;;11.80;63.86
63181;BME280;49273;37.772;-122.432;2022-11-15T09:32:41;101526.53;;;11.89;63.95
63181;BME280;49273;37.772;-122.432;2022-11-15T09:35:10;101522.60;;;11.91;63.49
63181;BME280;49273;37.772;-122.432;2022-11-15T09:37:38;101527.82;;;11.77;63.73
63181;BME280;49273;37.772;-122.432;2022-11-15T09:40:09;101529.35;;;11.78;64.08
63181;BME280;49273;37.772;-122.432;2022-11-15T09:42:52;101531.04;;;11.75;64.28
63181;BME280;49273;37.772;-122.432;2022-11-15T09:45:30;101531.65;;;11.67;65.62
63181;BME280;49273;37.772;-122.432;2022-11-15T09:48:14;101535.30;;;11.62;66.82
63181;BME280;49273;37.772;-122.432;2022-11-15T09:50:49;101535.83;;;11.75;66.50
63181;BME280;49273;37.772;-122.432;2022-11-15T09:53:24;101535.53;;;11.65;67.53
63181;BME280;49273;37.772;-122.432;2022-11-15T09:55:58;101527.67;;;11.57;67.94
63181;BME280;49273;37.772;-122.432;2022-11-15T09:58:32;101526.23;;;11.57;68.05
63181;BME280;49273;37.772;-122.432;2022-11-15T10:01:06;101524.51;;;11.62;68.23
63181;BME280;49273;37.772;-122.432;2022-11-15T10:03:37;101525.33;;;11.67;68.09
63181;BME280;49273;37.772;-122.432;2022-11-15T10:06:13;101525.29;;;11.62;68.17
63181;BME280;49273;37.772;-122.432;2022-11-15T10:08:57;101524.22;;;11.56;68.70
63181;BME280;49273;37.772;-122.432;2022-11-15T10:11:27;101523.14;;;11.58;68.33
63181;BME280;49273;37.772;-122.432;2022-11-15T10:13:59;101525.02;;;11.53;68.23
63181;BME280;49273;37.772;-122.432;2022-11-15T10:16:45;101531.09;;;11.56;68.07
63181;BME280;49273;37.772;-122.432;2022-11-15T10:19:23;101533.11;;;11.50;68.13
63181;BME280;49273;37.772;-122.432;2022-11-15T10:22:06;101534.78;;;11.60;68.12
63181;BME280;49273;37.772;-122.432;2022-11-15T10:24:41;101532.37;;;11.47;68.89
63181;BME280;49273;37.772;-122.432;2022-11-15T10:27:13;101533.06;;;11.49;68.97
63181;BME280;49273;37.772;-122.432;2022-11-15T10:29:44;101539.48;;;11.46;69.64
63181;BME280;49273;37.772;-122.432;2022-11-15T10:32:15;101541.32;;;11.36;69.69
63181;BME280;49273;37.772;-122.432;2022-11-15T10:34:43;101536.47;;;11.40;69.81
63181;BME280;49273;37.772;-122.432;2022-11-15T10:37:10;101533.94;;;11.37;70.02
63181;BME280;49273;37.772;-122.432;2022-11-15T10:39:39;101535.66;;;11.23;70.68
63181;BME280;49273;37.772;-122.432;2022-11-15T10:42:28;101536.42;;;11.32;70.18
63181;BME280;49273;37.772;-122.432;2022-11-15T10:45:01;101536.93;;;11.31;70.08
63181;BME280;49273;37.772;-122.432;2022-11-15T10:47:34;101537.43;;;11.26;70.22
63181;BME280;49273;37.772;-122.432;2022-11-15T10:50:06;101547.56;;;11.02;70.88
63181;BME280;49273;37.772;-122.432;2022-11-15T10:52:35;101543.66;;;11.16;70.80
63181;BME280;49273;37.772;-122.432;2022-11-15T10:55:21;101546.16;;;11.18;70.51
63181;BME280;49273;37.772;-122.432;2022-11-15T10:57:54;101546.27;;;11.18;70.37
63181;BME280;49273;37.772;-122.432;2022-11-15T11:00:33;101548.62;;;11.24;70.34
63181;BME280;49273;37.772;-122.432;2022-11-15T11:03:04;101551.26;;;11.19;70.05
63181;BME280;49273;37.772;-122.432;2022-11-15T11:05:34;101556.67;;;11.17;70.41
63181;BME280;49273;37.772;-122.432;2022-11-15T11:08:05;101558.04;;;11.13;70.36
63181;BME280;49273;37.772;-122.432;2022-11-15T11:10:52;101564.48;;;11.03;70.97
63181;BME280;49273;37.772;-122.432;2022-11-15T11:13:24;101568.75;;;10.95;71.46
63181;BME280;49273;37.772;-122.432;2022-11-15T11:15:58;101567.52;;;10.92;71.57
63181;BME280;49273;37.772;-122.432;2022-11-15T11:18:34;101567.49;;;10.84;72.10
63181;BME280;49273;37.772;-122.432;2022-11-15T11:21:10;101568.58;;;10.79;71.45
63181;BME280;49273;37.772;-122.432;2022-11-15T11:23:48;101574.80;;;10.89;69.81
63181;BME280;49273;37.772;-122.432;2022-11-15T11:26:35;101576.86;;;10.97;70.31
63181;BME280;49273;37.772;-122.432;2022-11-15T11:29:20;101574.31;;;10.94;70.05
63181;BME280;49273;37.772;-122.432;2022-11-15T11:32:01;101578.21;;;10.94;69.28
63181;BME280;49273;37.772;-122.432;2022-11-15T11:34:40;101580.88;;;10.86;68.91
63181;BME280;49273;37.772;-122.432;2022-11-15T11:37:20;101578.22;;;10.87;69.34
63181;BME280;49273;37.772;-122.432;2022-11-15T11:39:59;101579.44;;;10.87;69.51
63181;BME280;49273;37.772;-122.432;2022-11-15T11:42:40;101586.27;;;10.91;69.10
63181;BME280;49273;37.772;-122.432;2022-11-15T11:45:18;101585.34;;;10.90;69.22
63181;BME280;49273;37.772;-122.432;2022-11-15T11:47:50;101588.80;;;10.85;69.27
63181;BME280;49273;37.772;-122.432;2022-11-15T11:50:21;101590.88;;;10.86;68.78
63181;BME280;49273;37.772;-122.432;2022-11-15T11:52:56;101593.15;;;10.78;68.69
63181;BME280;49273;37.772;-122.432;2022-11-15T11:55:29;101593.50;;;10.88;68.37
63181;BME280;49273;37.772;-122.432;2022-11-15T11:58:06;101589.77;;;10.92;68.18
63181;BME280;49273;37.772;-122.432;2022-11-15T12:00:43;101587.28;;;10.89;68.09
63181;BME280;49273;37.772;-122.432;2022-11-15T12:03:22;101588.41;;;11.01;67.87
63181;BME280;49273;37.772;-122.432;2022-11-15T12:05:56;101590.02;;;10.89;68.00
63181;BME280;49273;37.772;-122.432;2022-11-15T12:08:32;101593.57;;;10.69;68.74
63181;BME280;49273;37.772;-122.432;2022-11-15T12:11:09;101599.67;;;10.80;69.24
63181;BME280;49273;37.772;-122.432;2022-11-15T12:13:39;101600.84;;;10.84;69.05
63181;BME280;49273;37.772;-122.432;2022-11-15T12:16:14;101599.24;;;10.79;69.10
63181;BME280;49273;37.772;-122.432;2022-11-15T12:18:46;101600.39;;;10.69;69.62
63181;BME280;49273;37.772;-122.432;2022-11-15T12:21:22;101597.44;;;10.66;69.84
63181;BME280;49273;37.772;-122.432;2022-11-15T12:23:54;101596.59;;;10.63;69.99
63181;BME280;49273;37.772;-122.432;2022-11-15T12:26:28;101592.64;;;10.69;69.73
63181;BME280;49273;37.772;-122.432;2022-11-15T12:29:01;101593.69;;;10.68;69.57
63181;BME280;49273;37.772;-122.432;2022-11-15T12:31:36;101590.24;;;10.67;69.59
63181;BME280;49273;37.772;-122.432;2022-11-15T12:34:15;101596.72;;;10.73;69.49
63181;BME280;49273;37.772;-122.432;2022-11-15T12:36:56;101599.23;;;10.63;70.15
63181;BME280;49273;37.772;-122.432;2022-11-15T12:40:15;101596.83;;;10.61;70.04
63181;BME280;49273;37.772;-122.432;2022-11-15T12:42:59;101601.69;;;10.45;71.24